sensor_id;sensor_type;location;lat;lon;timestamp;pressure;altitude;pressure_sealevel;temperature;humidity
44457;BME280;30159;49.316;8.558;2022-12-13T00:01:34;99946.94;;;-2.96;100.00
44457;BME280;30159;49.316;8.558;2022-12-13T00:04:02;99922.19;;;-3.08;100.00
44457;BME280;30159;49.316;8.558;2022-12-13T00:06:30;99937.00;;;-2.94;100.00
44457;BME280;30159;49.316;8.558;2022-12-13T00:08:57;99927.88;;;-2.98;100.00
44457;BME280;30159;49.316;8.558;2022-12-13T00:11:26;99932.75;;;-2.95;100.00
44457;BME280;30159;49.316;8.558;2022-12-13T00:13:53;99913.06;;;-3.06;100.00
44457;BME280;30159;49.316;8.558;2022-12-13T00:16:21;99931.72;;;-2.94;100.00
44457;BME280;30159;49.316;8.558;2022-12-13T00:18:48;99920.56;;;-2.96;100.00
44457;BME280;30159;49.316;8.558;2022-12-13T00:21:17;99925.63;;;-2.94;100.00
44457;BME280;30159;49.316;8.558;2022-12-13T00:23:44;99919.34;;;-3.00;100.00
44457;BME280;30159;49.316;8.558;2022-12-13T00:26:13;99915.09;;;-2.94;100.00
44457;BME280;30159;49.316;8.558;2022-12-13T00:28:42;99906.38;;;-2.95;100.00
44457;BME280;30159;49.316;8.558;2022-12-13T00:31:09;99925.03;;;-2.90;100.00
44457;BME280;30159;49.316;8.558;2022-12-13T00:33:36;99820.75;;;-3.39;100.00
44457;BME280;30159;49.316;8.558;2022-12-13T00:36:04;99909.19;;;-2.90;100.00
44457;BME280;30159;49.316;8.558;2022-12-13T00:38:30;99886.66;;;-3.06;100.00
44457;BME280;30159;49.316;8.558;2022-12-13T00:40:57;99900.47;;;-2.90;100.00
44457;BME280;30159;49.316;8.558;2022-12-13T00:43:23;99910.41;;;-2.99;100.00
44457;BME280;30159;49.316;8.558;2022-12-13T00:45:51;99891.16;;;-3.06;100.00
44457;BME280;30159;49.316;8.558;2022-12-13T00:48:18;99895.81;;;-3.08;100.00
44457;BME280;30159;49.316;8.558;2022-12-13T00:50:44;99916.91;;;-3.02;100.00
44457;BME280;30159;49.316;8.558;2022-12-13T00:53:11;99916.91;;;-3.08;100.00
44457;BME280;30159;49.316;8.558;2022-12-13T00:55:39;99908.59;;;-3.12;100.00
44457;BME280;30159;49.316;8.558;2022-12-13T00:58:06;99880.97;;;-3.29;100.00
44457;BME280;30159;49.316;8.558;2022-12-13T01:00:33;99905.97;;;-3.19;100.00
44457;BME280;30159;49.316;8.558;2022-12-13T01:03:00;99903.72;;;-3.22;100.00
44457;BME280;30159;49.316;8.558;2022-12-13T01:05:44;99898.22;;;-3.33;100.00
44457;BME280;30159;49.316;8.558;2022-12-13T01:08:11;99893.34;;;-3.36;100.00
44457;BME280;30159;49.316;8.558;2022-12-13T01:10:41;99898.00;;;-3.39;100.00
44457;BME280;30159;49.316;8.558;2022-12-13T01:13:08;99891.72;;;-3.44;100.00
44457;BME280;30159;49.316;8.558;2022-12-13T01:15:34;99892.94;;;-3.47;100.00
44457;BME280;30159;49.316;8.558;2022-12-13T01:18:06;99908.31;;;-3.50;100.00
44457;BME280;30159;49.316;8.558;2022-12-13T01:20:33;99864.25;;;-3.83;100.00
44457;BME280;30159;49.316;8.558;2022-12-13T01:22:59;99908.13;;;-3.55;100.00
44457;BME280;30159;49.316;8.558;2022-12-13T01:25:26;99919.44;;;-3.62;100.00
44457;BME280;30159;49.316;8.558;2022-12-13T01:27:52;99910.31;;;-3.66;100.00
44457;BME280;30159;49.316;8.558;2022-12-13T01:30:19;99917.41;;;-3.66;100.00
44457;BME280;30159;49.316;8.558;2022-12-13T01:32:45;99907.25;;;-3.69;100.00
44457;BME280;30159;49.316;8.558;2022-12-13T01:35:13;99901.59;;;-3.66;100.00
44457;BME280;30159;49.316;8.558;2022-12-13T01:37:40;99902.78;;;-3.75;100.00
44457;BME280;30159;49.316;8.558;2022-12-13T01:40:08;99853.66;;;-3.96;100.00
44457;BME280;30159;49.316;8.558;2022-12-13T01:42:36;99901.00;;;-3.62;100.00
44457;BME280;30159;49.316;8.558;2022-12-13T01:45:11;99900.19;;;-3.62;100.00
44457;BME280;30159;49.316;8.558;2022-12-13T01:47:44;99901.59;;;-3.66;100.00
44457;BME280;30159;49.316;8.558;2022-12-13T01:50:16;99895.31;;;-3.65;100.00
44457;BME280;30159;49.316;8.558;2022-12-13T01:52:44;99890.44;;;-3.62;100.00
44457;BME280;30159;49.316;8.558;2022-12-13T01:55:13;99893.31;;;-3.56;100.00
44457;BME280;30159;49.316;8.558;2022-12-13T01:57:41;99892.91;;;-3.60;100.00
44457;BME280;30159;49.316;8.558;2022-12-13T02:00:10;99890.09;;;-3.52;100.00
44457;BME280;30159;49.316;8.558;2022-12-13T02:02:37;99880.97;;;-3.49;100.00
44457;BME280;30159;49.316;8.558;2022-12-13T02:05:08;99883.16;;;-3.60;100.00
44457;BME280;30159;49.316;8.558;2022-12-13T02:07:39;99873.22;;;-3.57;100.00
44457;BME280;30159;49.316;8.558;2022-12-13T02:10:07;99898.16;;;-3.60;100.00
44457;BME280;30159;49.316;8.558;2022-12-13T02:12:36;99869.19;;;-3.60;100.00
44457;BME280;30159;49.316;8.558;2022-12-13T02:15:05;99865.75;;;-3.61;100.00
44457;BME280;30159;49.316;8.558;2022-12-13T02:18:04;99860.84;;;-3.70;100.00
44457;BME280;30159;49.316;8.558;2022-12-13T02:21:16;99879.09;;;-3.62;100.00
44457;BME280;30159;49.316;8.558;2022-12-13T02:24:21;99871.59;;;-3.65;100.00
44457;BME280;30159;49.316;8.558;2022-12-13T02:26:59;99860.84;;;-3.77;100.00
44457;BME280;30159;49.316;8.558;2022-12-13T02:32:45;99869.59;;;-3.63;100.00
44457;BME280;30159;49.316;8.558;2022-12-13T02:35:21;99865.53;;;-3.59;100.00
44457;BME280;30159;49.316;8.558;2022-12-13T02:37:58;99871.63;;;-3.58;100.00
44457;BME280;30159;49.316;8.558;2022-12-13T02:40:32;99874.25;;;-3.58;100.00
44457;BME280;30159;49.316;8.558;2022-12-13T02:43:05;99878.09;;;-3.54;100.00
44457;BME280;30159;49.316;8.558;2022-12-13T02:45:36;99871.84;;;-3.53;100.00
44457;BME280;30159;49.316;8.558;2022-12-13T02:48:09;99830.00;;;-3.83;100.00
44457;BME280;30159;49.316;8.558;2022-12-13T02:50:37;99878.13;;;-3.48;100.00
44457;BME280;30159;49.316;8.558;2022-12-13T02:53:05;99855.81;;;-3.58;100.00
44457;BME280;30159;49.316;8.558;2022-12-13T02:55:33;99877.13;;;-3.47;100.00
44457;BME280;30159;49.316;8.558;2022-12-13T02:58:03;99856.22;;;-3.55;100.00
44457;BME280;30159;49.316;8.558;2022-12-13T03:00:33;99872.06;;;-3.42;100.00
44457;BME280;30159;49.316;8.558;2022-12-13T03:03:13;99871.44;;;-3.44;100.00
44457;BME280;30159;49.316;8.558;2022-12-13T03:05:49;99866.97;;;-3.56;100.00
44457;BME280;30159;49.316;8.558;2022-12-13T03:08:44;99871.84;;;-3.53;100.00
44457;BME280;30159;49.316;8.558;2022-12-13T03:11:15;99872.44;;;-3.58;100.00
44457;BME280;30159;49.316;8.558;2022-12-13T03:13:47;99864.09;;;-3.62;100.00
44457;BME280;30159;49.316;8.558;2022-12-13T03:16:24;99866.34;;;-3.65;100.00
44457;BME280;30159;49.316;8.558;2022-12-13T03:18:56;99856.81;;;-3.73;100.00
44457;BME280;30159;49.316;8.558;2022-12-13T03:21:23;99778.44;;;-4.26;100.00
44457;BME280;30159;49.316;8.558;2022-12-13T03:23:50;99797.88;;;-4.27;100.00
44457;BME280;30159;49.316;8.558;2022-12-13T03:26:19;99844.16;;;-3.97;100.00
44457;BME280;30159;49.316;8.558;2022-12-13T03:28:46;99839.66;;;-4.04;100.00
44457;BME280;30159;49.316;8.558;2022-12-13T03:31:13;99855.09;;;-4.00;100.00
44457;BME280;30159;49.316;8.558;2022-12-13T03:33:39;99852.84;;;-4.04;100.00
44457;BME280;30159;49.316;8.558;2022-12-13T03:36:08;99860.34;;;-4.07;100.00
44457;BME280;30159;49.316;8.558;2022-12-13T03:38:36;99839.63;;;-4.24;100.00
44457;BME280;30159;49.316;8.558;2022-12-13T03:41:06;99857.66;;;-4.14;100.00
44457;BME280;30159;49.316;8.558;2022-12-13T03:43:34;99856.44;;;-4.18;100.00
44457;BME280;30159;49.316;8.558;2022-12-13T03:46:00;99854.59;;;-4.24;100.00
44457;BME280;30159;49.316;8.558;2022-12-13T03:48:27;99830.63;;;-4.42;100.00
44457;BME280;30159;49.316;8.558;2022-12-13T03:50:55;99858.22;;;-4.25;100.00
44457;BME280;30159;49.316;8.558;2022-12-13T03:53:23;99848.06;;;-4.35;100.00
44457;BME280;30159;49.316;8.558;2022-12-13T03:55:50;99849.09;;;-4.29;100.00
44457;BME280;30159;49.316;8.558;2022-12-13T03:58:17;99855.16;;;-4.35;100.00
44457;BME280;30159;49.316;8.558;2022-12-13T04:00:44;99856.16;;;-4.36;100.00
44457;BME280;30159;49.316;8.558;2022-12-13T04:03:10;99851.72;;;-4.29;100.00
44457;BME280;30159;49.316;8.558;2022-12-13T04:05:37;99846.91;;;-4.26;100.00
44457;BME280;30159;49.316;8.558;2022-12-13T04:08:04;99842.03;;;-4.22;100.00
44457;BME280;30159;49.316;8.558;2022-12-13T04:10:32;99839.00;;;-4.26;100.00
44457;BME280;30159;49.316;8.558;2022-12-13T04:12:59;99845.69;;;-4.23;100.00
44457;BME280;30159;49.316;8.558;2022-12-13T04:15:43;99835.09;;;-4.36;100.00
44457;BME280;30159;49.316;8.558;2022-12-13T04:18:15;99851.94;;;-4.31;100.00
44457;BME280;30159;49.316;8.558;2022-12-13T04:20:43;99849.72;;;-4.27;100.00
44457;BME280;30159;49.316;8.558;2022-12-13T04:23:10;99846.09;;;-4.26;100.00
44457;BME280;30159;49.316;8.558;2022-12-13T04:25:38;99846.91;;;-4.26;100.00
44457;BME280;30159;49.316;8.558;2022-12-13T04:28:05;99841.81;;;-4.27;100.00
44457;BME280;30159;49.316;8.558;2022-12-13T04:30:33;99777.84;;;-4.69;100.00
44457;BME280;30159;49.316;8.558;2022-12-13T04:33:00;99788.44;;;-4.56;100.00
44457;BME280;30159;49.316;8.558;2022-12-13T04:35:26;99827.03;;;-4.28;100.00
44457;BME280;30159;49.316;8.558;2022-12-13T04:37:53;99809.78;;;-4.37;100.00
44457;BME280;30159;49.316;8.558;2022-12-13T04:40:21;99831.13;;;-4.19;100.00
44457;BME280;30159;49.316;8.558;2022-12-13T04:42:51;99830.09;;;-4.18;100.00
44457;BME280;30159;49.316;8.558;2022-12-13T04:45:20;99828.72;;;-4.14;100.00
44457;BME280;30159;49.316;8.558;2022-12-13T04:47:46;99829.09;;;-4.10;100.00
44457;BME280;30159;49.316;8.558;2022-12-13T04:50:13;99834.63;;;-4.05;100.00
44457;BME280;30159;49.316;8.558;2022-12-13T04:52:40;99834.03;;;-4.00;100.00
44457;BME280;30159;49.316;8.558;2022-12-13T04:55:07;99828.34;;;-3.97;100.00
44457;BME280;30159;49.316;8.558;2022-12-13T04:57:34;99829.16;;;-3.97;100.00
44457;BME280;30159;49.316;8.558;2022-12-13T05:00:02;99828.78;;;-3.94;100.00
44457;BME280;30159;49.316;8.558;2022-12-13T05:02:29;99765.88;;;-4.30;100.00
44457;BME280;30159;49.316;8.558;2022-12-13T05:04:56;99827.34;;;-3.90;100.00
44457;BME280;30159;49.316;8.558;2022-12-13T05:07:22;99828.78;;;-3.87;100.00
44457;BME280;30159;49.316;8.558;2022-12-13T05:09:49;99785.19;;;-4.10;100.00
44457;BME280;30159;49.316;8.558;2022-12-13T05:12:15;99815.44;;;-3.79;100.00
44457;BME280;30159;49.316;8.558;2022-12-13T05:14:42;99819.69;;;-3.78;100.00
44457;BME280;30159;49.316;8.558;2022-12-13T05:17:10;99821.31;;;-3.77;100.00
44457;BME280;30159;49.316;8.558;2022-12-13T05:19:36;99800.81;;;-3.88;100.00
44457;BME280;30159;49.316;8.558;2022-12-13T05:22:03;99822.72;;;-3.81;100.00
44457;BME280;30159;49.316;8.558;2022-12-13T05:24:30;99818.28;;;-3.67;100.00
44457;BME280;30159;49.316;8.558;2022-12-13T05:26:57;99748.72;;;-4.19;100.00
44457;BME280;30159;49.316;8.558;2022-12-13T05:29:23;99821.94;;;-3.75;100.00
44457;BME280;30159;49.316;8.558;2022-12-13T05:31:51;99784.38;;;-3.97;100.00
44457;BME280;30159;49.316;8.558;2022-12-13T05:34:19;99819.28;;;-3.82;100.00
44457;BME280;30159;49.316;8.558;2022-12-13T05:36:46;99810.97;;;-3.78;100.00
44457;BME280;30159;49.316;8.558;2022-12-13T05:39:12;99817.03;;;-3.78;100.00
44457;BME280;30159;49.316;8.558;2022-12-13T05:41:39;99811.16;;;-3.80;100.00
44457;BME280;30159;49.316;8.558;2022-12-13T05:44:06;99769.75;;;-4.13;100.00
44457;BME280;30159;49.316;8.558;2022-12-13T05:46:34;99796.91;;;-4.06;100.00
44457;BME280;30159;49.316;8.558;2022-12-13T05:49:01;99813.38;;;-3.90;100.00
44457;BME280;30159;49.316;8.558;2022-12-13T05:51:29;99820.88;;;-3.87;100.00
44457;BME280;30159;49.316;8.558;2022-12-13T05:53:56;99800.38;;;-4.12;100.00
44457;BME280;30159;49.316;8.558;2022-12-13T05:56:22;99831.97;;;-4.12;100.00
44457;BME280;30159;49.316;8.558;2022-12-13T05:58:49;99820.59;;;-4.19;100.00
44457;BME280;30159;49.316;8.558;2022-12-13T06:01:15;99819.34;;;-4.23;100.00
44457;BME280;30159;49.316;8.558;2022-12-13T06:03:42;99756.81;;;-4.69;100.00
44457;BME280;30159;49.316;8.558;2022-12-13T06:06:10;99811.19;;;-4.41;100.00
44457;BME280;30159;49.316;8.558;2022-12-13T06:08:38;99804.31;;;-4.42;100.00
44457;BME280;30159;49.316;8.558;2022-12-13T06:11:06;99811.19;;;-4.41;100.00
44457;BME280;30159;49.316;8.558;2022-12-13T06:13:33;99816.84;;;-4.45;100.00
44457;BME280;30159;49.316;8.558;2022-12-13T06:16:01;99811.53;;;-4.51;100.00
44457;BME280;30159;49.316;8.558;2022-12-13T06:18:29;99763.56;;;-4.95;100.00
44457;BME280;30159;49.316;8.558;2022-12-13T06:20:56;99826.88;;;-4.61;100.00
44457;BME280;30159;49.316;8.558;2022-12-13T06:23:23;99826.00;;;-4.69;100.00
44457;BME280;30159;49.316;8.558;2022-12-13T06:25:51;99808.75;;;-4.78;100.00
44457;BME280;30159;49.316;8.558;2022-12-13T06:28:18;99824.59;;;-4.71;100.00
44457;BME280;30159;49.316;8.558;2022-12-13T06:30:45;99832.44;;;-4.78;100.00
44457;BME280;30159;49.316;8.558;2022-12-13T06:33:11;99831.25;;;-4.75;100.00
44457;BME280;30159;49.316;8.558;2022-12-13T06:35:38;99812.38;;;-4.85;100.00
44457;BME280;30159;49.316;8.558;2022-12-13T06:38:04;99836.94;;;-4.72;100.00
44457;BME280;30159;49.316;8.558;2022-12-13T06:40:31;99832.47;;;-4.71;100.00
44457;BME280;30159;49.316;8.558;2022-12-13T06:42:59;99823.97;;;-4.73;100.00
44457;BME280;30159;49.316;8.558;2022-12-13T06:45:27;99835.31;;;-4.73;100.00
44457;BME280;30159;49.316;8.558;2022-12-13T06:47:54;99817.44;;;-4.84;100.00
44457;BME280;30159;49.316;8.558;2022-12-13T06:50:21;99833.63;;;-4.80;100.00
44457;BME280;30159;49.316;8.558;2022-12-13T06:52:47;99834.88;;;-4.76;100.00
44457;BME280;30159;49.316;8.558;2022-12-13T06:55:14;99825.16;;;-4.82;100.00
44457;BME280;30159;49.316;8.558;2022-12-13T06:57:40;99835.66;;;-4.82;100.00
44457;BME280;30159;49.316;8.558;2022-12-13T07:00:10;99829.81;;;-4.78;100.00
44457;BME280;30159;49.316;8.558;2022-12-13T07:02:37;99824.84;;;-4.66;100.00
44457;BME280;30159;49.316;8.558;2022-12-13T07:05:04;99812.13;;;-4.56;100.00
44457;BME280;30159;49.316;8.558;2022-12-13T07:07:31;99822.50;;;-4.41;100.00
44457;BME280;30159;49.316;8.558;2022-12-13T07:09:57;99823.16;;;-4.32;100.00
44457;BME280;30159;49.316;8.558;2022-12-13T07:12:24;99821.63;;;-4.13;100.00
44457;BME280;30159;49.316;8.558;2022-12-13T07:14:51;99837.66;;;-4.02;100.00
44457;BME280;30159;49.316;8.558;2022-12-13T07:17:20;99843.34;;;-3.98;100.00
44457;BME280;30159;49.316;8.558;2022-12-13T07:19:47;99848.22;;;-3.95;100.00
44457;BME280;30159;49.316;8.558;2022-12-13T07:22:13;99837.06;;;-3.97;100.00
44457;BME280;30159;49.316;8.558;2022-12-13T07:24:40;99842.78;;;-3.87;100.00
44457;BME280;30159;49.316;8.558;2022-12-13T07:27:06;99825.50;;;-4.03;100.00
44457;BME280;30159;49.316;8.558;2022-12-13T07:29:33;99849.84;;;-3.94;100.00
44457;BME280;30159;49.316;8.558;2022-12-13T07:31:59;99860.59;;;-3.89;100.00
44457;BME280;30159;49.316;8.558;2022-12-13T07:34:27;99862.66;;;-3.77;100.00
44457;BME280;30159;49.316;8.558;2022-12-13T07:36:54;99864.47;;;-3.78;99.34
44457;BME280;30159;49.316;8.558;2022-12-13T07:39:22;99863.50;;;-3.70;99.92
44457;BME280;30159;49.316;8.558;2022-12-13T07:41:52;99869.78;;;-3.65;99.21
44457;BME280;30159;49.316;8.558;2022-12-13T07:44:19;99868.56;;;-3.62;98.30
44457;BME280;30159;49.316;8.558;2022-12-13T07:46:45;99865.53;;;-3.66;97.70
44457;BME280;30159;49.316;8.558;2022-12-13T07:49:12;99871.41;;;-3.57;98.18
44457;BME280;30159;49.316;8.558;2022-12-13T07:51:40;99876.06;;;-3.52;97.77
44457;BME280;30159;49.316;8.558;2022-12-13T07:54:06;99875.50;;;-3.41;97.66
44457;BME280;30159;49.316;8.558;2022-12-13T07:56:33;99873.47;;;-3.39;97.05
44457;BME280;30159;49.316;8.558;2022-12-13T07:58:59;99883.84;;;-3.31;96.40
44457;BME280;30159;49.316;8.558;2022-12-13T08:01:26;99879.38;;;-3.24;95.94
44457;BME280;30159;49.316;8.558;2022-12-13T08:03:53;99852.19;;;-3.31;95.34
44457;BME280;30159;49.316;8.558;2022-12-13T08:06:20;99867.59;;;-3.28;94.72
44457;BME280;30159;49.316;8.558;2022-12-13T08:08:48;99873.69;;;-3.34;94.71
44457;BME280;30159;49.316;8.558;2022-12-13T08:11:15;99851.75;;;-3.41;94.67
44457;BME280;30159;49.316;8.558;2022-12-13T08:13:42;99848.31;;;-3.42;94.20
44457;BME280;30159;49.316;8.558;2022-12-13T08:16:11;99840.22;;;-3.47;94.53
44457;BME280;30159;49.316;8.558;2022-12-13T08:18:39;99844.28;;;-3.37;94.17
44457;BME280;30159;49.316;8.558;2022-12-13T08:21:06;99846.69;;;-3.36;94.73
44457;BME280;30159;49.316;8.558;2022-12-13T08:23:34;99859.47;;;-3.20;93.69
44457;BME280;30159;49.316;8.558;2022-12-13T08:26:03;99880.81;;;-3.14;93.16
44457;BME280;30159;49.316;8.558;2022-12-13T08:28:31;99869.84;;;-2.98;92.68
44457;BME280;30159;49.316;8.558;2022-12-13T08:31:02;99862.53;;;-2.89;92.69
44457;BME280;30159;49.316;8.558;2022-12-13T08:33:29;99854.41;;;-2.88;91.11
44457;BME280;30159;49.316;8.558;2022-12-13T08:35:55;99855.81;;;-2.85;90.35
44457;BME280;30159;49.316;8.558;2022-12-13T08:38:23;99866.75;;;-2.55;89.91
44457;BME280;30159;49.316;8.558;2022-12-13T08:40:49;99869.38;;;-2.48;89.16
44457;BME280;30159;49.316;8.558;2022-12-13T08:43:17;99869.34;;;-2.35;90.20
44457;BME280;30159;49.316;8.558;2022-12-13T08:45:44;99871.28;;;-2.17;88.66
44457;BME280;30159;49.316;8.558;2022-12-13T08:48:10;99869.44;;;-2.10;88.61
44457;BME280;30159;49.316;8.558;2022-12-13T08:50:37;99859.03;;;-1.98;88.32
44457;BME280;30159;49.316;8.558;2022-12-13T08:53:03;99862.34;;;-2.09;85.41
44457;BME280;30159;49.316;8.558;2022-12-13T08:55:30;99874.69;;;-2.03;85.15
44457;BME280;30159;49.316;8.558;2022-12-13T08:57:56;99868.88;;;-2.19;86.11
44457;BME280;30159;49.316;8.558;2022-12-13T09:00:24;99871.69;;;-2.07;86.90
44457;BME280;30159;49.316;8.558;2022-12-13T09:02:51;99866.44;;;-2.20;85.91
44457;BME280;30159;49.316;8.558;2022-12-13T09:05:18;99864.84;;;-2.28;85.33
44457;BME280;30159;49.316;8.558;2022-12-13T09:07:44;99874.19;;;-2.25;85.07
44457;BME280;30159;49.316;8.558;2022-12-13T09:10:11;99852.44;;;-2.21;86.32
44457;BME280;30159;49.316;8.558;2022-12-13T09:12:40;99867.25;;;-2.26;84.65
44457;BME280;30159;49.316;8.558;2022-12-13T09:15:07;99876.19;;;-2.21;85.28
44457;BME280;30159;49.316;8.558;2022-12-13T09:17:35;99879.00;;;-2.09;84.08
44457;BME280;30159;49.316;8.558;2022-12-13T09:20:04;99886.34;;;-2.24;83.13
44457;BME280;30159;49.316;8.558;2022-12-13T09:22:30;99872.13;;;-2.17;84.72
44457;BME280;30159;49.316;8.558;2022-12-13T09:24:57;99875.94;;;-2.06;83.96
44457;BME280;30159;49.316;8.558;2022-12-13T09:27:24;99867.47;;;-2.21;83.52
44457;BME280;30159;49.316;8.558;2022-12-13T09:29:50;99873.31;;;-2.13;84.81
44457;BME280;30159;49.316;8.558;2022-12-13T09:32:17;99874.09;;;-2.05;84.54
44457;BME280;30159;49.316;8.558;2022-12-13T09:34:46;99876.50;;;-1.97;83.96
44457;BME280;30159;49.316;8.558;2022-12-13T09:37:12;99874.34;;;-2.14;84.11
44457;BME280;30159;49.316;8.558;2022-12-13T09:39:39;99880.28;;;-2.25;83.58
44457;BME280;30159;49.316;8.558;2022-12-13T09:42:09;99879.66;;;-2.20;84.51
44457;BME280;30159;49.316;8.558;2022-12-13T09:44:48;99879.69;;;-2.40;82.96
44457;BME280;30159;49.316;8.558;2022-12-13T09:47:25;99878.09;;;-2.41;85.11
44457;BME280;30159;49.316;8.558;2022-12-13T09:49:54;99875.41;;;-2.28;85.08
44457;BME280;30159;49.316;8.558;2022-12-13T09:52:22;99863.44;;;-2.30;84.42
44457;BME280;30159;49.316;8.558;2022-12-13T09:54:52;99870.50;;;-2.24;84.46
44457;BME280;30159;49.316;8.558;2022-12-13T09:57:22;99862.59;;;-2.24;84.20
44457;BME280;30159;49.316;8.558;2022-12-13T09:59:50;99862.22;;;-2.28;82.46
44457;BME280;30159;49.316;8.558;2022-12-13T10:02:21;99872.53;;;-2.26;83.22
44457;BME280;30159;49.316;8.558;2022-12-13T10:04:48;99853.09;;;-2.39;81.97
44457;BME280;30159;49.316;8.558;2022-12-13T10:07:18;99881.13;;;-2.38;82.26
44457;BME280;30159;49.316;8.558;2022-12-13T10:09:45;99874.22;;;-2.39;82.00
44457;BME280;30159;49.316;8.558;2022-12-13T10:12:14;99870.94;;;-2.27;81.82
44457;BME280;30159;49.316;8.558;2022-12-13T10:14:44;99859.91;;;-2.11;82.46
44457;BME280;30159;49.316;8.558;2022-12-13T10:17:17;99863.53;;;-2.05;82.51
44457;BME280;30159;49.316;8.558;2022-12-13T10:19:47;99860.69;;;-2.04;82.33
44457;BME280;30159;49.316;8.558;2022-12-13T10:22:18;99852.78;;;-2.10;80.20
44457;BME280;30159;49.316;8.558;2022-12-13T10:24:49;99846.88;;;-2.06;82.33
44457;BME280;30159;49.316;8.558;2022-12-13T10:27:18;99841.59;;;-2.06;81.55
44457;BME280;30159;49.316;8.558;2022-12-13T10:29:58;99839.19;;;-2.14;80.91
44457;BME280;30159;49.316;8.558;2022-12-13T10:32:25;99776.81;;;-2.60;79.68
44457;BME280;30159;49.316;8.558;2022-12-13T10:34:52;99840.81;;;-2.20;80.07
44457;BME280;30159;49.316;8.558;2022-12-13T10:37:26;99833.09;;;-2.15;80.01
44457;BME280;30159;49.316;8.558;2022-12-13T10:39:53;99838.34;;;-2.08;80.62
44457;BME280;30159;49.316;8.558;2022-12-13T10:42:20;99841.59;;;-2.06;79.12
44457;BME280;30159;49.316;8.558;2022-12-13T10:44:47;99837.69;;;-1.97;80.85
44457;BME280;30159;49.316;8.558;2022-12-13T10:47:16;99814.34;;;-2.00;79.78
44457;BME280;30159;49.316;8.558;2022-12-13T10:49:49;99794.81;;;-1.99;79.82
44457;BME280;30159;49.316;8.558;2022-12-13T10:52:27;99816.50;;;-1.90;79.84
44457;BME280;30159;49.316;8.558;2022-12-13T10:54:55;99818.94;;;-1.88;78.78
44457;BME280;30159;49.316;8.558;2022-12-13T10:57:23;99812.41;;;-1.79;80.61
44457;BME280;30159;49.316;8.558;2022-12-13T10:59:50;99808.03;;;-1.67;79.15
44457;BME280;30159;49.316;8.558;2022-12-13T11:02:29;99807.88;;;-1.72;78.01
44457;BME280;30159;49.316;8.558;2022-12-13T11:04:57;99811.69;;;-1.68;79.08
44457;BME280;30159;49.316;8.558;2022-12-13T11:07:27;99788.59;;;-1.79;78.49
44457;BME280;30159;49.316;8.558;2022-12-13T11:09:54;99801.84;;;-1.54;78.81
44457;BME280;30159;49.316;8.558;2022-12-13T11:12:22;99795.31;;;-1.52;77.92
44457;BME280;30159;49.316;8.558;2022-12-13T11:14:53;99790.47;;;-1.55;78.53
44457;BME280;30159;49.316;8.558;2022-12-13T11:17:21;99789.84;;;-1.57;79.31
44457;BME280;30159;49.316;8.558;2022-12-13T11:19:51;99795.00;;;-1.62;78.36
44457;BME280;30159;49.316;8.558;2022-12-13T11:22:21;99714.41;;;-2.09;78.57
44457;BME280;30159;49.316;8.558;2022-12-13T11:24:54;99790.03;;;-1.52;77.55
44457;BME280;30159;49.316;8.558;2022-12-13T11:27:42;99789.16;;;-1.45;78.95
44457;BME280;30159;49.316;8.558;2022-12-13T11:30:12;99778.97;;;-1.42;77.90
44457;BME280;30159;49.316;8.558;2022-12-13T11:33:04;99785.50;;;-1.44;77.95
44457;BME280;30159;49.316;8.558;2022-12-13T11:35:44;99784.63;;;-1.38;77.75
44457;BME280;30159;49.316;8.558;2022-12-13T11:38:24;99785.72;;;-1.21;76.89
44457;BME280;30159;49.316;8.558;2022-12-13T11:40:55;99726.94;;;-1.48;78.13
44457;BME280;30159;49.316;8.558;2022-12-13T11:43:29;99787.00;;;-0.87;76.52
44457;BME280;30159;49.316;8.558;2022-12-13T11:46:01;99783.28;;;-0.79;77.84
44457;BME280;30159;49.316;8.558;2022-12-13T11:48:36;99777.53;;;-0.76;77.84
44457;BME280;30159;49.316;8.558;2022-12-13T11:51:08;99772.25;;;-0.76;77.01
44457;BME280;30159;49.316;8.558;2022-12-13T11:53:44;99773.91;;;-1.18;76.23
44457;BME280;30159;49.316;8.558;2022-12-13T11:56:19;99759.91;;;-1.25;76.81
44457;BME280;30159;49.316;8.558;2022-12-13T11:58:55;99760.88;;;-1.45;77.35
44457;BME280;30159;49.316;8.558;2022-12-13T12:01:26;99757.09;;;-1.31;79.13
44457;BME280;30159;49.316;8.558;2022-12-13T12:03:58;99766.66;;;-1.30;79.79
44457;BME280;30159;49.316;8.558;2022-12-13T12:06:31;99769.09;;;-1.28;79.54
44457;BME280;30159;49.316;8.558;2022-12-13T12:09:03;99768.72;;;-1.32;78.54
44457;BME280;30159;49.316;8.558;2022-12-13T12:11:34;99769.03;;;-1.21;78.36
44457;BME280;30159;49.316;8.558;2022-12-13T12:14:09;99770.72;;;-1.27;78.26
44457;BME280;30159;49.316;8.558;2022-12-13T12:16:40;99762.22;;;-1.36;78.34
44457;BME280;30159;49.316;8.558;2022-12-13T12:19:12;99728.00;;;-1.31;78.60
44457;BME280;30159;49.316;8.558;2022-12-13T12:21:51;99760.63;;;-0.93;79.59
44457;BME280;30159;49.316;8.558;2022-12-13T12:24:26;99759.44;;;-0.97;77.77
44457;BME280;30159;49.316;8.558;2022-12-13T12:27:10;99745.16;;;-1.15;78.01
44457;BME280;30159;49.316;8.558;2022-12-13T12:30:00;99767.59;;;-0.99;77.75
44457;BME280;30159;49.316;8.558;2022-12-13T12:32:32;99759.88;;;-1.00;78.90
44457;BME280;30159;49.316;8.558;2022-12-13T12:35:17;99750.16;;;-1.07;78.64
44457;BME280;30159;49.316;8.558;2022-12-13T12:37:50;99738.31;;;-1.22;78.63
44457;BME280;30159;49.316;8.558;2022-12-13T12:40:43;99754.41;;;-1.24;78.08
44457;BME280;30159;49.316;8.558;2022-12-13T12:43:21;99753.78;;;-1.26;78.90
44457;BME280;30159;49.316;8.558;2022-12-13T12:46:01;99741.91;;;-1.17;79.58
44457;BME280;30159;49.316;8.558;2022-12-13T12:48:54;99742.34;;;-1.20;78.03
44457;BME280;30159;49.316;8.558;2022-12-13T12:51:27;99740.00;;;-1.28;77.16
44457;BME280;30159;49.316;8.558;2022-12-13T12:54:10;99732.88;;;-1.28;78.52
44457;BME280;30159;49.316;8.558;2022-12-13T12:56:46;99723.09;;;-1.27;77.41
44457;BME280;30159;49.316;8.558;2022-12-13T12:59:21;99728.78;;;-1.23;78.15
44457;BME280;30159;49.316;8.558;2022-12-13T13:01:56;99720.72;;;-1.35;78.15
44457;BME280;30159;49.316;8.558;2022-12-13T13:04:29;99729.53;;;-1.41;76.97
44457;BME280;30159;49.316;8.558;2022-12-13T13:07:04;99728.28;;;-1.39;78.22
44457;BME280;30159;49.316;8.558;2022-12-13T13:09:33;99740.66;;;-1.33;77.57
44457;BME280;30159;49.316;8.558;2022-12-13T13:12:02;99732.06;;;-1.28;78.77